Terminal Aerodrome Forecast
Issued by NWS

Home | Current Version | Previous Version | Graphics & Text | Print | Product List | Glossary On
Versions: 1 2 3 4 5 6 7 8 9 10 11 12 13 14 15 16 17
000
FTUS43 KMPX 150200 AAA
TAFRWF
TAF AMD
KRWF 150231Z 1503/1524 19007KT 3SM BR OVC004
     FM150400 24005KT 2SM BR OVC003
     FM150900 36004KT 1SM -RA BR OVC003
     FM151500 36012G18KT 3/4SM RA BR OVC003
      TEMPO 1518/1522 -FZRAPLSN
     FM152200 35018G30KT 3/4SM -SN BR OVC003=

USA.gov is the U.S. government's official web portal to all federal, state and local government web resources and services.